Time;durP1;ratioP1;P1;durP2;ratioP2;P2;SDS_P1;SDS_P2;PMS_P1;PMS_P2;Temp;Humidity;BMP_temperature;BMP_pressure;BME280_temperature;BME280_humidity;BME280_pressure;Samples;Min_cycle;Max_cycle;Signal;HPM_P1;HPM_P2
2023/09/18 00:00:24;;;;;;;;;;;;;;;25.14;39.55;101408.97;5055054;28;19920;-92
2023/09/18 00:02:49;;;;;;;;;;;;;;;25.09;39.43;101406.38;5049326;28;20015;-92
2023/09/18 00:05:15;;;;;;;;;;;;;;;25.07;39.34;101402.38;5051411;28;19921;-92
2023/09/18 00:07:44;;;;;;;;;;;;;;;25.04;39.91;101405.78;5053224;28;19924;-92
2023/09/18 00:10:10;;;;;;;;;;;;;;;24.99;39.87;101401.25;5051762;28;19935;-92
2023/09/18 00:12:36;;;;;;;;;;;;;;;24.97;39.93;101401.59;5054814;28;19925;-92
2023/09/18 00:15:01;;;;;;;;;;;;;;;24.93;40.01;101394.34;5058269;28;19924;-92
2023/09/18 00:17:26;;;;;;;;;;;;;;;24.92;39.92;101393.53;5059086;28;19925;-92
2023/09/18 00:19:52;;;;;;;;;;;;;;;24.94;39.71;101394.00;5063583;28;20296;-92
2023/09/18 00:22:17;;;;;;;;;;;;;;;24.97;39.44;101382.41;5055097;28;19920;-92
2023/09/18 00:24:42;;;;;;;;;;;;;;;24.97;39.68;101382.41;5049666;28;19986;-92
2023/09/18 00:27:08;;;;;;;;;;;;;;;24.96;39.70;101383.53;5051196;28;20292;-92
2023/09/18 00:29:33;;;;;;;;;;;;;;;24.93;39.88;101377.88;5056748;28;19920;-92
2023/09/18 00:31:58;;;;;;;;;;;;;;;24.89;40.02;101371.47;5056724;28;20396;-92
2023/09/18 00:34:24;;;;;;;;;;;;;;;24.88;39.95;101369.88;5072069;28;19925;-92
2023/09/18 00:36:49;;;;;;;;;;;;;;;24.85;39.85;101373.28;5052705;28;19923;-92
2023/09/18 00:39:15;;;;;;;;;;;;;;;24.83;39.95;101372.78;5056663;28;19921;-92
2023/09/18 00:41:40;;;;;;;;;;;;;;;24.81;39.88;101375.88;5055023;28;20000;-92
2023/09/18 00:44:06;;;;;;;;;;;;;;;24.79;39.82;101380.88;5057888;28;19978;-92
2023/09/18 00:46:32;;;;;;;;;;;;;;;24.76;39.97;101372.47;5049936;28;19927;-92
2023/09/18 00:48:58;;;;;;;;;;;;;;;24.75;39.92;101376.34;5072726;28;19924;-92
2023/09/18 00:51:23;;;;;;;;;;;;;;;24.72;40.01;101377.81;5056571;28;19921;-92
2023/09/18 00:53:49;;;;;;;;;;;;;;;24.68;40.03;101372.19;5051988;28;19924;-92
2023/09/18 00:56:15;;;;;;;;;;;;;;;24.67;40.12;101364.31;5051623;28;19954;-92
2023/09/18 00:58:40;;;;;;;;;;;;;;;24.65;40.16;101363.84;5051659;28;20019;-91
2023/09/18 01:01:06;;;;;;;;;;;;;;;24.60;39.98;101369.50;5055278;28;20289;-92
2023/09/18 01:03:31;;;;;;;;;;;;;;;24.57;40.31;101370.13;5052429;28;19923;-93
2023/09/18 01:05:57;;;;;;;;;;;;;;;24.53;40.18;101371.94;5055874;28;19977;-92
2023/09/18 01:08:22;;;;;;;;;;;;;;;24.50;40.42;101369.84;5053364;28;20004;-92
2023/09/18 01:10:53;;;;;;;;;;;;;;;24.46;40.32;101366.97;5051052;28;19925;-92
2023/09/18 01:13:23;;;;;;;;;;;;;;;24.41;40.37;101354.22;5054344;28;20385;-91
2023/09/18 01:15:52;;;;;;;;;;;;;;;24.37;40.53;101349.72;5054090;28;19990;-92
2023/09/18 01:18:18;;;;;;;;;;;;;;;24.33;40.51;101348.78;5053253;28;19920;-91
2023/09/18 01:20:43;;;;;;;;;;;;;;;24.31;40.52;101351.84;5066926;28;19951;-91
2023/09/18 01:23:11;;;;;;;;;;;;;;;24.27;40.74;101350.88;5053946;28;19964;-93
2023/09/18 01:25:36;;;;;;;;;;;;;;;24.25;40.63;101347.66;5051749;28;20288;-92
2023/09/18 01:28:02;;;;;;;;;;;;;;;24.25;40.52;101339.44;5053364;28;19920;-92
2023/09/18 01:30:27;;;;;;;;;;;;;;;24.26;40.43;101348.47;5055799;28;19924;-92
2023/09/18 01:32:54;;;;;;;;;;;;;;;24.25;40.59;101341.38;5053274;28;19917;-92
2023/09/18 01:35:20;;;;;;;;;;;;;;;24.24;40.58;101343.31;5056261;28;19963;-91
2023/09/18 01:37:46;;;;;;;;;;;;;;;24.22;40.41;101340.06;5052863;28;19921;-91
2023/09/18 01:40:11;;;;;;;;;;;;;;;24.22;40.45;101339.25;5068012;28;20333;-92
2023/09/18 01:42:37;;;;;;;;;;;;;;;24.22;40.22;101342.81;5052392;28;19921;-92
2023/09/18 01:45:05;;;;;;;;;;;;;;;24.22;40.10;101339.25;5050940;28;19964;-92
2023/09/18 01:47:30;;;;;;;;;;;;;;;24.21;40.39;101330.25;5054081;28;19920;-91
2023/09/18 01:49:55;;;;;;;;;;;;;;;24.17;40.41;101332.03;5049974;28;20392;-92
2023/09/18 01:52:21;;;;;;;;;;;;;;;24.11;40.77;101331.41;5058903;28;19979;-92
2023/09/18 01:54:47;;;;;;;;;;;;;;;24.07;41.00;101335.94;5051347;28;19925;-91
2023/09/18 01:57:13;;;;;;;;;;;;;;;24.07;40.72;101327.72;5051548;28;19932;-92
2023/09/18 01:59:38;;;;;;;;;;;;;;;24.08;41.03;101332.06;5054909;28;19956;-92
2023/09/18 02:02:06;;;;;;;;;;;;;;;24.09;40.59;101327.41;5051498;28;19960;-92
2023/09/18 02:04:32;;;;;;;;;;;;;;;24.09;40.54;101324.66;5053721;28;19974;-92
2023/09/18 02:06:57;;;;;;;;;;;;;;;24.05;40.62;101316.28;5050276;28;20395;-92
2023/09/18 02:09:23;;;;;;;;;;;;;;;24.02;40.60;101316.94;5076841;28;19916;-91
2023/09/18 02:11:48;;;;;;;;;;;;;;;24.00;40.87;101310.16;5064935;28;19928;-92
2023/09/18 02:14:14;;;;;;;;;;;;;;;23.98;40.79;101315.16;5050421;28;20069;-92
2023/09/18 02:16:43;;;;;;;;;;;;;;;23.94;41.09;101306.81;5052053;28;20491;-92
2023/09/18 02:19:10;;;;;;;;;;;;;;;23.91;41.36;101312.13;5050879;28;20011;-92
2023/09/18 02:21:36;;;;;;;;;;;;;;;23.88;41.10;101310.03;5050517;28;20480;-92
2023/09/18 02:24:01;;;;;;;;;;;;;;;23.87;41.22;101303.75;5052198;28;20119;-92
2023/09/18 02:26:27;;;;;;;;;;;;;;;23.83;41.63;101302.78;5056393;28;19964;-92
2023/09/18 02:28:55;;;;;;;;;;;;;;;23.84;41.61;101298.13;5065295;28;19960;-92
2023/09/18 02:31:22;;;;;;;;;;;;;;;23.87;41.69;101290.06;5050745;28;20014;-92
2023/09/18 02:33:48;;;;;;;;;;;;;;;23.89;41.35;101292.50;5050977;28;20023;-92
2023/09/18 02:36:13;;;;;;;;;;;;;;;23.89;41.48;101287.03;5054507;28;19959;-92
2023/09/18 02:38:39;;;;;;;;;;;;;;;23.87;41.28;101286.53;5053241;28;19943;-91
2023/09/18 02:41:04;;;;;;;;;;;;;;;23.87;41.86;101283.78;5049258;28;20212;-92
2023/09/18 02:43:29;;;;;;;;;;;;;;;23.88;42.00;101283.50;5051533;28;19932;-92
2023/09/18 02:45:55;;;;;;;;;;;;;;;23.90;41.74;101280.44;5049508;28;19924;-91
2023/09/18 02:48:20;;;;;;;;;;;;;;;23.89;41.21;101273.34;5050012;28;20390;-92
2023/09/18 02:50:45;;;;;;;;;;;;;;;23.87;41.76;101276.38;5051209;28;20338;-91
2023/09/18 02:53:21;;;;;;;;;;;;;;;23.83;41.49;101267.22;5051626;28;20138;-92
2023/09/18 02:55:47;;;;;;;;;;;;;;;23.77;41.60;101261.13;5049610;28;19931;-91
2023/09/18 02:58:13;;;;;;;;;;;;;;;23.70;41.30;101257.28;5056580;28;19951;-91
2023/09/18 03:00:45;;;;;;;;;;;;;;;23.65;41.70;101250.03;5054961;28;19956;-92
2023/09/18 03:03:11;;;;;;;;;;;;;;;23.58;41.78;101247.00;5050806;28;19925;-91
2023/09/18 03:05:36;;;;;;;;;;;;;;;23.53;41.81;101244.41;5066780;28;19920;-92
2023/09/18 03:08:02;;;;;;;;;;;;;;;23.50;41.75;101245.00;5051856;28;19921;-92
2023/09/18 03:10:27;;;;;;;;;;;;;;;23.46;41.95;101244.06;5067878;28;20312;-92
2023/09/18 03:12:53;;;;;;;;;;;;;;;23.44;41.70;101246.31;5051481;28;19932;-92
2023/09/18 03:15:18;;;;;;;;;;;;;;;23.42;41.65;101226.69;5053813;28;19942;-92
2023/09/18 03:17:44;;;;;;;;;;;;;;;23.41;41.42;101230.56;5050951;28;19924;-93
2023/09/18 03:20:09;;;;;;;;;;;;;;;23.41;41.66;101222.34;5052062;28;19920;-92
2023/09/18 03:22:35;;;;;;;;;;;;;;;23.38;41.48;101231.22;5051753;28;19935;-91
2023/09/18 03:25:00;;;;;;;;;;;;;;;23.33;41.60;101223.94;5047130;28;20175;-92
2023/09/18 03:27:28;;;;;;;;;;;;;;;23.30;41.84;101215.59;5055373;28;19960;-92
2023/09/18 03:29:56;;;;;;;;;;;;;;;23.27;41.66;101213.50;5049756;28;19917;-92
2023/09/18 03:32:22;;;;;;;;;;;;;;;23.26;41.60;101217.38;5046606;28;19935;-91
2023/09/18 03:34:50;;;;;;;;;;;;;;;23.26;42.21;101211.91;5049419;28;19917;-92
2023/09/18 03:37:15;;;;;;;;;;;;;;;23.28;41.94;101210.47;5051439;28;20130;-92
2023/09/18 03:39:41;;;;;;;;;;;;;;;23.30;41.97;101210.94;5049815;28;19921;-92
2023/09/18 03:42:06;;;;;;;;;;;;;;;23.34;42.19;101213.81;5050359;28;19920;-91
2023/09/18 03:44:32;;;;;;;;;;;;;;;23.39;42.40;101213.69;5055266;28;20033;-91
2023/09/18 03:46:57;;;;;;;;;;;;;;;23.44;42.56;101213.50;5050879;28;20441;-92
2023/09/18 03:49:22;;;;;;;;;;;;;;;23.47;42.58;101213.66;5053398;28;19924;-92
2023/09/18 03:51:48;;;;;;;;;;;;;;;23.49;42.24;101203.19;5053921;28;20371;-92
2023/09/18 03:54:13;;;;;;;;;;;;;;;23.49;42.30;101202.38;5054701;28;19931;-92
2023/09/18 03:56:39;;;;;;;;;;;;;;;23.49;42.64;101210.59;5053211;28;20008;-92
2023/09/18 03:59:04;;;;;;;;;;;;;;;23.49;42.34;101211.41;5054860;28;20335;-92
2023/09/18 04:01:30;;;;;;;;;;;;;;;23.54;42.82;101201.44;5057719;28;19943;-92
2023/09/18 04:03:55;;;;;;;;;;;;;;;23.60;43.02;101211.91;5051315;28;20415;-92
2023/09/18 04:06:21;;;;;;;;;;;;;;;23.71;42.97;101202.25;5053864;28;19932;-93
2023/09/18 04:08:46;;;;;;;;;;;;;;;23.80;42.56;101205.75;5054703;28;20351;-92
2023/09/18 04:11:12;;;;;;;;;;;;;;;23.89;42.55;101200.25;5052308;28;20367;-91
2023/09/18 04:13:37;;;;;;;;;;;;;;;23.95;42.80;101200.88;5053724;28;20025;-92
2023/09/18 04:16:03;;;;;;;;;;;;;;;24.00;42.79;101197.94;5053870;28;19921;-91
2023/09/18 04:18:29;;;;;;;;;;;;;;;24.03;43.04;101202.78;5057640;28;19952;-92
2023/09/18 04:20:54;;;;;;;;;;;;;;;24.03;42.98;101197.28;5053403;28;20489;-92
2023/09/18 04:23:24;;;;;;;;;;;;;;;24.07;42.94;101198.28;5054548;28;19990;-92
2023/09/18 04:25:50;;;;;;;;;;;;;;;24.11;43.00;101193.75;5055924;28;19916;-92
2023/09/18 04:28:17;;;;;;;;;;;;;;;24.14;42.97;101195.81;5052978;28;20372;-91
2023/09/18 04:30:42;;;;;;;;;;;;;;;24.16;43.08;101195.47;5050316;28;20347;-92
2023/09/18 04:33:08;;;;;;;;;;;;;;;24.17;43.01;101197.88;5052380;28;19920;-92
2023/09/18 04:35:33;;;;;;;;;;;;;;;24.19;43.20;101187.41;5057443;28;19932;-92
2023/09/18 04:37:59;;;;;;;;;;;;;;;24.20;43.25;101185.47;5064571;28;19917;-92
2023/09/18 04:40:26;;;;;;;;;;;;;;;24.22;43.06;101181.25;5066989;28;20004;-92
2023/09/18 04:42:51;;;;;;;;;;;;;;;24.26;43.33;101184.97;5053115;28;19925;-92
2023/09/18 04:45:17;;;;;;;;;;;;;;;24.31;43.18;101182.06;5053316;28;19927;-92
2023/09/18 04:47:42;;;;;;;;;;;;;;;24.34;43.26;101188.81;5057548;28;19923;-92
2023/09/18 04:50:08;;;;;;;;;;;;;;;24.36;43.17;101181.06;5058175;28;19917;-93
2023/09/18 04:52:33;;;;;;;;;;;;;;;24.39;43.27;101174.94;5052366;28;20074;-92
2023/09/18 04:54:59;;;;;;;;;;;;;;;24.40;43.12;101168.31;5051450;28;19924;-92
2023/09/18 04:57:24;;;;;;;;;;;;;;;24.40;42.79;101169.13;5055643;28;20292;-90
2023/09/18 04:59:50;;;;;;;;;;;;;;;24.40;43.08;101165.59;5055504;28;19925;-92
2023/09/18 05:02:16;;;;;;;;;;;;;;;24.38;43.30;101174.13;5058295;28;19973;-92
2023/09/18 05:04:41;;;;;;;;;;;;;;;24.37;43.05;101169.00;5053061;28;19920;-92
2023/09/18 05:07:07;;;;;;;;;;;;;;;24.34;43.20;101164.19;5052330;28;20208;-93
2023/09/18 05:09:32;;;;;;;;;;;;;;;24.29;42.85;101169.84;5056905;28;19913;-92
2023/09/18 05:11:58;;;;;;;;;;;;;;;24.22;42.63;101166.78;5054759;28;19921;-92
2023/09/18 05:14:23;;;;;;;;;;;;;;;24.17;43.08;101170.50;5049895;28;19931;-92
2023/09/18 05:16:48;;;;;;;;;;;;;;;24.10;42.72;101167.50;5051644;28;19946;-92
2023/09/18 05:19:14;;;;;;;;;;;;;;;24.06;42.99;101161.88;5051245;28;21629;-92
2023/09/18 05:21:39;;;;;;;;;;;;;;;24.03;43.19;101168.00;5054229;28;19921;-92
2023/09/18 05:24:05;;;;;;;;;;;;;;;24.00;43.20;101165.91;5053019;28;19928;-92
2023/09/18 05:26:30;;;;;;;;;;;;;;;23.99;42.86;101163.50;5061784;28;20005;-92
2023/09/18 05:28:56;;;;;;;;;;;;;;;23.97;43.14;101154.81;5050866;28;19921;-92
2023/09/18 05:31:21;;;;;;;;;;;;;;;23.94;43.10;101150.81;5053507;28;19935;-92
2023/09/18 05:33:47;;;;;;;;;;;;;;;23.95;43.00;101148.88;5055225;28;21958;-91
2023/09/18 05:36:12;;;;;;;;;;;;;;;23.94;43.21;101145.34;5058027;28;20457;-92
2023/09/18 05:38:38;;;;;;;;;;;;;;;24.00;43.76;101141.28;5047704;28;20028;-92
2023/09/18 05:41:05;;;;;;;;;;;;;;;24.13;43.77;101141.41;5049978;28;19928;-91
2023/09/18 05:43:30;;;;;;;;;;;;;;;24.27;43.53;101136.50;5056933;28;19920;-92
2023/09/18 05:45:56;;;;;;;;;;;;;;;24.44;43.45;101135.63;5058419;28;19951;-92
2023/09/18 05:48:21;;;;;;;;;;;;;;;24.55;43.43;101126.66;5053853;28;19931;-92
2023/09/18 05:50:47;;;;;;;;;;;;;;;24.71;43.28;101124.13;5052342;28;19929;-92
2023/09/18 05:53:13;;;;;;;;;;;;;;;24.80;43.28;101116.66;5053180;28;20380;-92
2023/09/18 05:55:38;;;;;;;;;;;;;;;24.85;43.26;101116.44;5054099;28;19970;-91
2023/09/18 05:58:04;;;;;;;;;;;;;;;24.92;43.10;101108.47;5054944;28;19916;-92
2023/09/18 06:00:33;;;;;;;;;;;;;;;25.04;43.27;101105.03;5050903;28;20211;-92
2023/09/18 06:02:58;;;;;;;;;;;;;;;25.17;43.09;101103.13;5060124;28;20007;-92
2023/09/18 06:05:24;;;;;;;;;;;;;;;25.26;42.88;101096.41;5053385;28;19987;-93
2023/09/18 06:07:50;;;;;;;;;;;;;;;25.38;42.93;101092.09;5052551;28;19974;-92
2023/09/18 06:10:17;;;;;;;;;;;;;;;25.48;42.89;101089.69;5053812;28;20300;-92
2023/09/18 06:12:43;;;;;;;;;;;;;;;25.57;42.93;101090.41;5045999;28;19924;-92
2023/09/18 06:15:12;;;;;;;;;;;;;;;25.65;42.75;101099.69;5050681;28;19948;-91
2023/09/18 06:17:41;;;;;;;;;;;;;;;25.74;42.73;101088.63;5048410;28;19966;-92
2023/09/18 06:20:09;;;;;;;;;;;;;;;25.81;42.51;101094.34;5049935;28;19920;-92
2023/09/18 06:22:34;;;;;;;;;;;;;;;25.82;42.45;101090.47;5051930;28;20403;-91
2023/09/18 06:25:00;;;;;;;;;;;;;;;25.87;42.56;101098.50;5052005;28;19927;-92
2023/09/18 06:27:25;;;;;;;;;;;;;;;25.92;42.41;101098.25;5050148;28;19916;-91
2023/09/18 06:29:50;;;;;;;;;;;;;;;26.00;42.47;101102.00;5050030;28;20640;-90
2023/09/18 06:32:16;;;;;;;;;;;;;;;26.09;42.59;101098.03;5052524;28;19925;-91
2023/09/18 06:34:44;;;;;;;;;;;;;;;26.20;42.32;101084.59;5043041;28;20367;-91
2023/09/18 06:37:12;;;;;;;;;;;;;;;26.31;42.34;101084.94;5048983;28;19924;-91
2023/09/18 06:39:37;;;;;;;;;;;;;;;26.43;42.02;101076.72;5048515;28;19917;-90
2023/09/18 06:42:03;;;;;;;;;;;;;;;26.50;42.21;101077.72;5050391;28;20296;-91
2023/09/18 06:44:28;;;;;;;;;;;;;;;26.61;41.82;101072.53;5049123;28;19920;-91
2023/09/18 06:46:53;;;;;;;;;;;;;;;26.71;41.77;101063.78;5050537;28;19955;-91
2023/09/18 06:49:19;;;;;;;;;;;;;;;26.79;42.08;101059.31;5046352;28;19928;-90
2023/09/18 06:51:44;;;;;;;;;;;;;;;26.92;41.71;101062.78;5050797;28;19952;-91
2023/09/18 06:54:10;;;;;;;;;;;;;;;26.95;41.60;101059.34;5052567;28;19921;-90
2023/09/18 06:56:35;;;;;;;;;;;;;;;27.01;41.48;101052.47;5049562;28;19927;-90
2023/09/18 06:59:00;;;;;;;;;;;;;;;27.06;41.59;101049.44;5046642;28;19943;-91
2023/09/18 07:01:27;;;;;;;;;;;;;;;27.18;41.42;101045.84;5052565;28;19924;-91
2023/09/18 07:03:53;;;;;;;;;;;;;;;27.29;41.42;101042.22;5053045;28;19959;-91
2023/09/18 07:06:20;;;;;;;;;;;;;;;27.38;41.26;101033.78;5054180;28;19967;-90
2023/09/18 07:08:45;;;;;;;;;;;;;;;27.47;41.30;101042.69;5050115;28;20449;-91
2023/09/18 07:11:11;;;;;;;;;;;;;;;27.54;41.10;101040.09;5063108;28;19992;-90
2023/09/18 07:13:37;;;;;;;;;;;;;;;27.57;41.21;101047.63;5048083;28;19921;-90
2023/09/18 07:16:03;;;;;;;;;;;;;;;27.63;41.15;101037.97;5046619;28;20303;-90
2023/09/18 07:18:29;;;;;;;;;;;;;;;27.73;41.16;101042.16;5050546;28;19928;-90
2023/09/18 07:20:54;;;;;;;;;;;;;;;27.84;40.88;101040.44;5048525;28;19921;-91
2023/09/18 07:23:20;;;;;;;;;;;;;;;27.92;40.96;101031.19;5050819;28;19954;-90
2023/09/18 07:25:47;;;;;;;;;;;;;;;28.05;40.89;101028.31;5049004;28;19920;-91
2023/09/18 07:28:17;;;;;;;;;;;;;;;28.19;40.65;101026.69;5054305;28;19934;-91
2023/09/18 07:30:43;;;;;;;;;;;;;;;28.36;40.44;101028.22;5049932;28;19928;-90
2023/09/18 07:33:09;;;;;;;;;;;;;;;28.50;40.46;101033.25;5053630;28;19916;-91
2023/09/18 07:35:34;;;;;;;;;;;;;;;28.68;39.91;101017.06;5066767;28;20441;-91
2023/09/18 07:38:00;;;;;;;;;;;;;;;28.80;39.76;101014.16;5056628;28;20438;-90
2023/09/18 07:40:25;;;;;;;;;;;;;;;28.93;39.73;101010.09;5053268;28;19924;-90
2023/09/18 07:42:50;;;;;;;;;;;;;;;29.09;39.76;101004.47;5052921;28;20019;-91
2023/09/18 07:45:17;;;;;;;;;;;;;;;29.21;39.47;101000.72;5055149;28;19923;-89
2023/09/18 07:47:43;;;;;;;;;;;;;;;29.32;39.38;101007.22;5053533;28;19982;-88
2023/09/18 07:50:08;;;;;;;;;;;;;;;29.40;39.34;101009.72;5056558;28;20385;-90
2023/09/18 07:52:33;;;;;;;;;;;;;;;29.48;39.22;101007.91;5059880;28;19967;-90
2023/09/18 07:54:59;;;;;;;;;;;;;;;29.60;39.26;101006.88;5052500;28;19921;-90
2023/09/18 07:57:25;;;;;;;;;;;;;;;29.74;39.09;101001.59;5051473;28;20094;-90
2023/09/18 07:59:51;;;;;;;;;;;;;;;29.89;38.83;101002.59;5049627;28;19924;-90
2023/09/18 08:02:17;;;;;;;;;;;;;;;30.02;38.93;100995.69;5049678;28;19969;-90
2023/09/18 08:04:43;;;;;;;;;;;;;;;30.15;38.74;100994.28;5056915;28;19920;-89
2023/09/18 08:07:08;;;;;;;;;;;;;;;30.33;38.45;100983.47;5058126;28;19917;-90
2023/09/18 08:09:37;;;;;;;;;;;;;;;30.46;38.34;100981.25;5053593;28;19921;-91
2023/09/18 08:12:06;;;;;;;;;;;;;;;30.57;38.14;100987.72;5053850;28;19928;-90
2023/09/18 08:14:31;;;;;;;;;;;;;;;30.65;37.99;100983.84;5049318;28;19920;-90
2023/09/18 08:16:57;;;;;;;;;;;;;;;30.78;37.74;100974.13;5050096;28;20172;-92
2023/09/18 08:19:23;;;;;;;;;;;;;;;30.86;37.60;100981.31;5048635;28;19920;-87
2023/09/18 08:21:48;;;;;;;;;;;;;;;31.00;37.38;100966.81;5046733;28;19951;-88
2023/09/18 08:24:14;;;;;;;;;;;;;;;31.09;37.47;100959.00;5049009;28;20029;-87
2023/09/18 08:26:39;;;;;;;;;;;;;;;31.24;37.08;100960.75;5049136;28;19924;-87
2023/09/18 08:29:04;;;;;;;;;;;;;;;31.34;36.82;100964.75;5050082;28;19975;-88
2023/09/18 08:31:31;;;;;;;;;;;;;;;31.46;36.82;100958.13;5047316;28;19970;-88
2023/09/18 08:33:57;;;;;;;;;;;;;;;31.58;36.51;100960.56;5049961;28;20361;-87
2023/09/18 08:36:22;;;;;;;;;;;;;;;31.67;36.22;100955.50;5048463;28;19943;-86
2023/09/18 08:38:47;;;;;;;;;;;;;;;31.70;36.36;100946.41;5048534;28;19952;-86
2023/09/18 08:41:14;;;;;;;;;;;;;;;31.73;36.24;100947.63;5048837;28;19928;-88
2023/09/18 08:43:42;;;;;;;;;;;;;;;31.76;36.33;100946.84;5047952;28;19976;-89
2023/09/18 08:46:08;;;;;;;;;;;;;;;31.86;36.16;100957.22;5048616;28;19925;-88
2023/09/18 08:48:36;;;;;;;;;;;;;;;32.03;36.10;100939.88;5049714;28;20029;-89
2023/09/18 08:51:03;;;;;;;;;;;;;;;32.25;35.94;100946.28;5047088;28;20019;-89
2023/09/18 08:53:30;;;;;;;;;;;;;;;32.40;35.62;100947.16;5049088;28;19928;-89
2023/09/18 08:55:58;;;;;;;;;;;;;;;32.58;35.37;100948.00;5044813;28;19920;-88
2023/09/18 08:58:24;;;;;;;;;;;;;;;32.74;35.18;100940.09;5047648;28;19920;-89
2023/09/18 09:00:49;;;;;;;;;;;;;;;32.87;35.26;100942.53;5048520;28;20003;-89
2023/09/18 09:03:15;;;;;;;;;;;;;;;32.95;35.10;100949.66;5047515;28;20410;-89
2023/09/18 09:05:40;;;;;;;;;;;;;;;33.03;34.90;100942.91;5054610;28;19927;-89
2023/09/18 09:08:06;;;;;;;;;;;;;;;33.12;34.33;100931.41;5052272;28;19920;-91
2023/09/18 09:10:31;;;;;;;;;;;;;;;33.18;34.14;100924.25;5054671;28;20013;-88
2023/09/18 09:12:58;;;;;;;;;;;;;;;33.25;34.09;100927.03;5052444;28;20360;-91
2023/09/18 09:15:25;;;;;;;;;;;;;;;33.34;33.79;100921.88;5048163;28;19928;-92
2023/09/18 09:17:51;;;;;;;;;;;;;;;33.41;33.69;100916.34;5063914;28;19917;-89
2023/09/18 09:20:18;;;;;;;;;;;;;;;33.52;33.48;100911.53;5056449;28;19917;-91
2023/09/18 09:22:43;;;;;;;;;;;;;;;33.65;33.50;100914.69;5057801;28;19927;-87
2023/09/18 09:25:31;;;;;;;;;;;;;;;33.78;33.14;100901.94;5050731;28;19921;-87
2023/09/18 09:27:56;;;;;;;;;;;;;;;33.92;33.16;100901.88;5053551;28;19959;-88
2023/09/18 09:30:26;;;;;;;;;;;;;;;34.01;33.14;100892.34;5049326;28;19946;-86
2023/09/18 09:32:52;;;;;;;;;;;;;;;34.15;33.06;100889.50;5054424;28;19924;-89
2023/09/18 09:35:21;;;;;;;;;;;;;;;34.21;32.64;100885.88;5050736;28;20014;-87
2023/09/18 09:37:47;;;;;;;;;;;;;;;34.32;32.46;100894.16;5051063;28;19927;-87
2023/09/18 09:40:14;;;;;;;;;;;;;;;34.44;32.20;100890.91;5042510;28;19928;-86
2023/09/18 09:42:40;;;;;;;;;;;;;;;34.60;32.11;100884.03;5055459;28;20006;-86
2023/09/18 09:45:11;;;;;;;;;;;;;;;34.77;31.87;100883.13;5055140;28;19919;-86
2023/09/18 09:47:37;;;;;;;;;;;;;;;34.93;32.12;100886.19;5049899;28;19924;-86
2023/09/18 09:50:07;;;;;;;;;;;;;;;35.10;31.07;100878.88;5048086;28;19982;-87
2023/09/18 09:52:33;;;;;;;;;;;;;;;35.22;31.29;100872.00;5052360;28;19929;-86
2023/09/18 09:54:58;;;;;;;;;;;;;;;35.32;31.21;100868.28;5051463;28;19920;-88
2023/09/18 09:57:24;;;;;;;;;;;;;;;35.44;31.05;100859.44;5051370;28;19925;-86
2023/09/18 09:59:49;;;;;;;;;;;;;;;35.52;30.56;100865.72;5054569;28;19928;-90
2023/09/18 10:02:19;;;;;;;;;;;;;;;35.50;30.47;100862.56;5057077;28;20023;-91
2023/09/18 10:04:48;;;;;;;;;;;;;;;35.54;29.51;100864.09;5050917;28;19927;-93
2023/09/18 10:07:13;;;;;;;;;;;;;;;35.52;30.16;100866.50;5056955;28;20039;-92
2023/09/18 10:09:41;;;;;;;;;;;;;;;35.54;30.05;100854.94;5055294;28;20034;-93
2023/09/18 10:12:10;;;;;;;;;;;;;;;35.62;30.30;100862.03;5055107;28;19921;-92
2023/09/18 10:14:38;;;;;;;;;;;;;;;35.65;29.87;100856.41;5053450;28;19924;-91
2023/09/18 10:17:17;;;;;;;;;;;;;;;35.61;29.65;100847.28;5055515;28;19924;-91
2023/09/18 10:19:52;;;;;;;;;;;;;;;35.65;29.74;100844.47;5057506;28;19925;-92
2023/09/18 10:22:29;;;;;;;;;;;;;;;35.76;29.62;100835.97;5049998;28;20324;-87
2023/09/18 10:24:56;;;;;;;;;;;;;;;35.81;29.26;100824.34;5047321;28;19921;-87
2023/09/18 10:27:25;;;;;;;;;;;;;;;35.86;29.48;100821.91;5050485;28;20381;-89
2023/09/18 10:29:52;;;;;;;;;;;;;;;35.86;29.03;100809.97;5051078;28;20007;-88
2023/09/18 10:32:18;;;;;;;;;;;;;;;35.91;29.01;100813.09;5052045;28;20018;-89
2023/09/18 10:34:44;;;;;;;;;;;;;;;35.97;29.08;100811.41;5050906;28;19931;-89
2023/09/18 10:37:09;;;;;;;;;;;;;;;36.02;28.92;100807.34;5052468;28;19920;-90
2023/09/18 10:39:36;;;;;;;;;;;;;;;36.06;28.80;100788.53;5054021;28;19921;-88
2023/09/18 10:42:03;;;;;;;;;;;;;;;36.11;28.50;100790.88;5052944;28;19924;-89
2023/09/18 10:44:29;;;;;;;;;;;;;;;36.13;27.95;100793.25;5046852;28;19943;-89
2023/09/18 10:46:57;;;;;;;;;;;;;;;36.14;28.31;100790.03;5050729;28;19928;-89
2023/09/18 10:49:24;;;;;;;;;;;;;;;36.21;28.35;100777.97;5049966;28;19927;-86
2023/09/18 10:51:52;;;;;;;;;;;;;;;36.28;27.91;100784.22;5048827;28;19924;-86
2023/09/18 10:54:25;;;;;;;;;;;;;;;36.36;27.75;100778.56;5050029;28;19920;-92
2023/09/18 10:56:51;;;;;;;;;;;;;;;36.36;27.98;100782.13;5056136;28;19960;-92
2023/09/18 10:59:17;;;;;;;;;;;;;;;36.22;27.46;100763.59;5057627;28;19943;-92
2023/09/18 11:01:43;;;;;;;;;;;;;;;36.16;28.00;100765.28;5057096;28;20395;-91
2023/09/18 11:04:10;;;;;;;;;;;;;;;36.11;27.85;100762.22;5055545;28;19974;-90
2023/09/18 11:06:53;;;;;;;;;;;;;;;36.14;27.66;100755.78;5054109;28;19946;-87
2023/09/18 11:09:24;;;;;;;;;;;;;;;36.13;27.69;100762.56;5048788;28;19927;-86
2023/09/18 11:11:58;;;;;;;;;;;;;;;36.12;27.90;100756.19;5047615;28;20415;-88
2023/09/18 11:14:41;;;;;;;;;;;;;;;36.07;27.83;100756.66;5045915;28;19928;-86
2023/09/18 11:17:26;;;;;;;;;;;;;;;36.03;27.81;100744.78;5048425;28;19924;-86
2023/09/18 11:19:55;;;;;;;;;;;;;;;36.03;27.95;100753.16;5045626;28;20325;-87
2023/09/18 11:22:21;;;;;;;;;;;;;;;36.08;28.09;100747.09;5045351;28;19933;-87
2023/09/18 11:24:47;;;;;;;;;;;;;;;36.16;27.98;100748.56;5042165;28;20022;-86
2023/09/18 11:27:13;;;;;;;;;;;;;;;36.28;27.81;100750.75;5043160;28;19927;-87
2023/09/18 11:29:40;;;;;;;;;;;;;;;36.31;27.67;100746.34;5047916;28;19920;-92
2023/09/18 11:32:05;;;;;;;;;;;;;;;36.45;27.65;100737.75;5055173;28;19931;-94
2023/09/18 11:34:41;;;;;;;;;;;;;;;36.70;27.62;100731.69;5053716;28;19917;-93
2023/09/18 11:37:19;;;;;;;;;;;;;;;36.97;27.15;100734.38;5053279;28;20811;-92
2023/09/18 11:39:45;;;;;;;;;;;;;;;37.15;27.08;100731.22;5054581;28;20161;-89
2023/09/18 11:42:26;;;;;;;;;;;;;;;37.21;26.39;100723.94;5044254;28;20039;-89
2023/09/18 11:44:52;;;;;;;;;;;;;;;37.27;26.32;100718.66;5062688;28;19922;-87
2023/09/18 11:47:21;;;;;;;;;;;;;;;37.40;26.94;100717.56;5045146;28;20599;-92
2023/09/18 11:49:50;;;;;;;;;;;;;;;37.55;26.56;100711.66;5047190;28;19924;-87
2023/09/18 11:52:17;;;;;;;;;;;;;;;37.60;26.35;100699.94;5048013;28;19968;-89
2023/09/18 11:54:42;;;;;;;;;;;;;;;37.60;26.01;100700.75;5046750;28;20411;-89
2023/09/18 11:57:08;;;;;;;;;;;;;;;37.56;25.99;100702.03;5046680;28;20027;-86
2023/09/18 11:59:36;;;;;;;;;;;;;;;37.41;25.99;100701.56;5047399;28;19920;-89
2023/09/18 12:02:05;;;;;;;;;;;;;;;37.26;25.95;100706.69;5044469;28;21727;-86
2023/09/18 12:04:32;;;;;;;;;;;;;;;37.09;26.36;100696.66;5041118;28;20452;-87
2023/09/18 12:06:59;;;;;;;;;;;;;;;37.03;26.38;100699.16;5055291;28;19925;-89
2023/09/18 12:09:26;;;;;;;;;;;;;;;37.02;26.57;100692.00;5054294;28;19946;-90
2023/09/18 12:11:53;;;;;;;;;;;;;;;37.00;26.49;100699.25;5054278;28;19935;-90
2023/09/18 12:14:20;;;;;;;;;;;;;;;36.89;25.94;100702.25;5048721;28;19999;-87
2023/09/18 12:16:45;;;;;;;;;;;;;;;36.85;26.12;100698.75;5052564;28;20683;-87
2023/09/18 12:19:15;;;;;;;;;;;;;;;36.81;26.42;100698.03;5057700;28;19932;-89
2023/09/18 12:21:41;;;;;;;;;;;;;;;36.80;26.56;100691.63;5055333;28;19971;-89
2023/09/18 12:24:07;;;;;;;;;;;;;;;36.71;26.30;100693.41;5057828;28;20015;-89
2023/09/18 12:26:32;;;;;;;;;;;;;;;36.68;26.66;100695.06;5056021;28;20489;-90
2023/09/18 12:28:59;;;;;;;;;;;;;;;36.67;26.57;100699.06;5050390;28;20262;-89
2023/09/18 12:31:25;;;;;;;;;;;;;;;36.56;26.85;100699.25;5054441;28;20043;-89